createdAt,value
2022-10-14T00:00:08.293Z,0.00
2022-10-14T00:01:08.287Z,0.00
2022-10-14T00:02:08.308Z,0.00
2022-10-14T00:03:08.283Z,0.00
2022-10-14T00:04:08.250Z,0.00
2022-10-14T00:05:08.242Z,0.00
2022-10-14T00:06:08.228Z,0.00
2022-10-14T00:07:08.221Z,0.00
2022-10-14T00:08:08.212Z,0.00
2022-10-14T00:09:08.214Z,0.00
2022-10-14T00:10:08.185Z,0.00
2022-10-14T00:11:08.180Z,0.00
2022-10-14T00:12:08.167Z,0.00
2022-10-14T00:13:08.158Z,0.00
2022-10-14T00:14:08.148Z,0.00
2022-10-14T00:15:08.146Z,0.00
2022-10-14T00:16:08.125Z,0.00
2022-10-14T00:17:08.124Z,0.00
2022-10-14T00:18:08.117Z,0.00
2022-10-14T00:19:08.100Z,0.00
2022-10-14T00:20:08.103Z,0.00
2022-10-14T00:21:08.087Z,0.00
2022-10-14T00:22:08.062Z,0.00
2022-10-14T00:23:08.055Z,0.00
2022-10-14T00:24:08.040Z,0.00
2022-10-14T00:25:08.043Z,0.00
2022-10-14T00:26:08.024Z,0.00
2022-10-14T00:27:08.015Z,0.00
2022-10-14T00:28:08.004Z,0.00
2022-10-14T00:29:07.994Z,0.00
2022-10-14T00:30:07.988Z,0.00
2022-10-14T00:31:07.971Z,0.00
2022-10-14T00:32:07.963Z,0.00
2022-10-14T00:33:07.949Z,0.00
2022-10-14T00:34:07.954Z,0.00
2022-10-14T00:35:07.938Z,0.00
2022-10-14T00:36:07.925Z,0.00
2022-10-14T00:37:07.906Z,0.00
2022-10-14T00:38:07.924Z,0.00
2022-10-14T00:39:07.888Z,0.00
2022-10-14T00:40:07.878Z,0.00
2022-10-14T00:41:07.864Z,0.00
2022-10-14T00:42:07.853Z,0.00
2022-10-14T00:43:07.847Z,0.00
2022-10-14T00:44:07.840Z,0.00
2022-10-14T00:45:07.825Z,0.00
2022-10-14T00:46:07.810Z,0.00
2022-10-14T00:47:07.802Z,0.00
2022-10-14T00:48:07.788Z,0.00
2022-10-14T00:49:07.794Z,0.00
2022-10-14T00:50:07.769Z,0.00
2022-10-14T00:51:07.761Z,0.00
2022-10-14T00:52:07.747Z,0.00
2022-10-14T00:53:07.742Z,0.00
2022-10-14T00:54:07.739Z,0.00
2022-10-14T00:55:07.796Z,0.00
2022-10-14T00:56:07.704Z,0.00
2022-10-14T00:57:07.697Z,0.00
2022-10-14T00:58:07.683Z,0.00
2022-10-14T00:59:07.685Z,0.00
2022-10-14T01:00:07.664Z,0.00
2022-10-14T01:01:07.707Z,0.00
2022-10-14T01:02:07.643Z,0.00
2022-10-14T01:03:07.632Z,0.00
2022-10-14T01:04:07.628Z,0.00
2022-10-14T01:05:07.610Z,0.00
2022-10-14T01:06:07.600Z,0.00
2022-10-14T01:07:07.590Z,0.00
2022-10-14T01:08:07.690Z,0.00
2022-10-14T01:09:07.580Z,0.00
2022-10-14T01:10:07.556Z,0.00
2022-10-14T01:11:07.549Z,0.00
2022-10-14T01:12:27.929Z,0.00
2022-10-14T01:13:07.532Z,0.00
2022-10-14T01:14:07.515Z,0.00
2022-10-14T01:15:07.519Z,0.00
2022-10-14T01:16:07.502Z,0.00
2022-10-14T01:17:07.488Z,0.00
2022-10-14T01:18:07.475Z,0.00
2022-10-14T01:19:07.467Z,0.00
2022-10-14T01:20:07.456Z,0.00
2022-10-14T01:21:07.464Z,0.00
2022-10-14T01:22:07.527Z,0.00
2022-10-14T01:23:07.536Z,0.00
2022-10-14T01:24:07.413Z,0.00
2022-10-14T01:25:07.402Z,0.00
2022-10-14T01:26:07.392Z,0.00
2022-10-14T01:27:07.403Z,0.00
2022-10-14T01:28:07.365Z,0.00
2022-10-14T01:29:07.357Z,0.00
2022-10-14T01:30:07.347Z,0.00
2022-10-14T01:31:07.341Z,0.00
2022-10-14T01:32:07.323Z,0.00
2022-10-14T01:33:07.325Z,0.00
2022-10-14T01:34:07.313Z,0.00
2022-10-14T01:35:07.293Z,0.00
2022-10-14T01:36:07.281Z,0.00
2022-10-14T01:37:07.283Z,0.00
2022-10-14T01:38:07.269Z,0.00
2022-10-14T01:39:07.262Z,0.00
2022-10-14T01:40:07.240Z,0.00
2022-10-14T01:41:07.230Z,0.00
2022-10-14T01:42:07.215Z,0.00
2022-10-14T01:43:07.218Z,0.00
2022-10-14T01:44:07.194Z,0.00
2022-10-14T01:45:07.185Z,0.00
2022-10-14T01:46:07.173Z,0.00
2022-10-14T01:47:07.180Z,0.00
2022-10-14T01:48:07.162Z,0.00
2022-10-14T01:49:07.162Z,0.00
2022-10-14T01:50:07.133Z,0.00
2022-10-14T01:51:07.127Z,0.00
2022-10-14T01:52:07.123Z,0.00
2022-10-14T01:53:07.113Z,0.00
2022-10-14T01:54:07.089Z,0.00
2022-10-14T01:55:07.080Z,0.00
2022-10-14T01:56:07.065Z,0.00
2022-10-14T01:57:07.076Z,0.00
2022-10-14T01:58:07.042Z,0.00
2022-10-14T01:59:07.044Z,0.00
2022-10-14T02:00:07.031Z,0.00
2022-10-14T02:01:07.026Z,0.00
2022-10-14T02:02:07.116Z,0.00
2022-10-14T02:03:06.994Z,0.00
2022-10-14T02:04:06.987Z,0.00
2022-10-14T02:05:06.973Z,0.00
2022-10-14T02:06:06.968Z,0.00
2022-10-14T02:07:06.960Z,0.00
2022-10-14T02:08:06.949Z,0.00
2022-10-14T02:09:06.931Z,0.00
2022-10-14T02:10:06.915Z,0.00
2022-10-14T02:11:06.908Z,0.00
2022-10-14T02:12:06.894Z,0.00
2022-10-14T02:13:06.897Z,0.00
2022-10-14T02:14:06.873Z,0.00
2022-10-14T02:15:06.864Z,0.00
2022-10-14T02:16:06.851Z,0.00
2022-10-14T02:17:06.843Z,0.00
2022-10-14T02:18:06.840Z,0.00
2022-10-14T02:19:06.841Z,0.00
2022-10-14T02:20:06.810Z,0.00
2022-10-14T02:21:06.799Z,0.00
2022-10-14T02:22:06.787Z,0.00
2022-10-14T02:23:06.778Z,0.00
2022-10-14T02:24:06.762Z,0.00
2022-10-14T02:25:06.768Z,0.00
2022-10-14T02:26:06.745Z,0.00
2022-10-14T02:27:06.737Z,0.00
2022-10-14T02:28:06.723Z,0.00
2022-10-14T02:29:06.725Z,0.00
2022-10-14T02:30:06.705Z,0.00
2022-10-14T02:31:06.696Z,0.00
2022-10-14T02:32:06.689Z,0.00
2022-10-14T02:33:06.678Z,0.00
2022-10-14T02:34:06.672Z,0.00
2022-10-14T02:35:06.653Z,0.00
2022-10-14T02:36:06.639Z,0.00
2022-10-14T02:37:06.631Z,0.00
2022-10-14T02:38:06.614Z,0.00
2022-10-14T02:39:06.621Z,0.00
2022-10-14T02:40:06.595Z,0.00
2022-10-14T02:41:06.586Z,0.00
2022-10-14T02:42:06.574Z,0.00
2022-10-14T02:43:06.566Z,0.00
2022-10-14T02:44:06.553Z,0.00
2022-10-14T02:45:06.552Z,0.00
2022-10-14T02:46:06.532Z,0.00
2022-10-14T02:47:06.534Z,0.00
2022-10-14T02:48:06.510Z,0.00
2022-10-14T02:49:06.504Z,0.00
2022-10-14T02:50:06.504Z,0.00
2022-10-14T02:51:06.488Z,0.00
2022-10-14T02:52:06.465Z,0.00
2022-10-14T02:53:06.459Z,0.00
2022-10-14T02:54:06.446Z,0.00
2022-10-14T02:55:06.456Z,0.00
2022-10-14T02:56:06.434Z,0.00
2022-10-14T02:57:06.431Z,0.00
2022-10-14T02:58:06.407Z,0.00
2022-10-14T02:59:06.399Z,0.00
2022-10-14T03:00:06.384Z,0.00
2022-10-14T03:01:06.377Z,0.00
2022-10-14T03:02:06.403Z,0.00
2022-10-14T03:03:06.368Z,0.00
2022-10-14T03:04:06.338Z,0.00
2022-10-14T03:05:06.331Z,0.00
2022-10-14T03:06:06.314Z,0.00
2022-10-14T03:07:06.370Z,0.00
2022-10-14T03:08:06.296Z,0.00
2022-10-14T03:09:06.298Z,0.00
2022-10-14T03:10:06.277Z,0.00
2022-10-14T03:11:06.268Z,0.00
2022-10-14T03:12:06.264Z,0.00
2022-10-14T03:13:06.248Z,0.00
2022-10-14T03:14:06.234Z,0.00
2022-10-14T03:15:06.225Z,0.00
2022-10-14T03:16:06.223Z,0.00
2022-10-14T03:17:06.206Z,0.00
2022-10-14T03:18:06.207Z,0.00
2022-10-14T03:19:06.182Z,0.00
2022-10-14T03:20:06.171Z,0.00
2022-10-14T03:21:06.159Z,0.00
2022-10-14T03:22:06.147Z,0.00
2022-10-14T03:23:06.140Z,0.00
2022-10-14T03:24:06.138Z,0.00
2022-10-14T03:25:06.126Z,0.00
2022-10-14T03:26:08.519Z,0.00
2022-10-14T03:27:06.099Z,0.00
2022-10-14T03:28:06.084Z,0.00
2022-10-14T03:29:06.109Z,0.00
2022-10-14T03:30:06.080Z,0.00
2022-10-14T03:31:06.072Z,0.00
2022-10-14T03:32:06.042Z,0.00
2022-10-14T03:33:06.031Z,0.00
2022-10-14T03:34:06.027Z,0.00
2022-10-14T03:35:06.015Z,0.00
2022-10-14T03:36:06.010Z,0.00
2022-10-14T03:37:05.988Z,0.00
2022-10-14T03:38:05.976Z,0.00
2022-10-14T03:39:05.976Z,0.00
2022-10-14T03:40:05.955Z,0.00
2022-10-14T03:41:05.962Z,0.00
2022-10-14T03:42:05.956Z,0.00
2022-10-14T03:43:05.929Z,0.00
2022-10-14T03:44:05.913Z,0.00
2022-10-14T03:45:05.907Z,0.00
2022-10-14T03:46:05.891Z,0.00
2022-10-14T03:47:05.892Z,0.00
2022-10-14T03:48:05.872Z,0.00
2022-10-14T03:49:05.869Z,0.00
2022-10-14T03:50:05.852Z,0.00
2022-10-14T03:51:05.841Z,0.00
2022-10-14T03:52:05.829Z,0.00
2022-10-14T03:53:05.831Z,0.00
2022-10-14T03:54:05.807Z,0.00
2022-10-14T03:55:05.801Z,0.00
2022-10-14T03:56:05.786Z,0.00
2022-10-14T03:57:05.777Z,0.00
2022-10-14T03:58:05.763Z,0.00
2022-10-14T03:59:05.770Z,0.00
2022-10-14T04:00:05.744Z,0.00
2022-10-14T04:01:05.743Z,0.00
2022-10-14T04:02:05.787Z,0.00
2022-10-14T04:03:05.734Z,0.00
2022-10-14T04:04:05.698Z,0.00
2022-10-14T04:05:05.690Z,0.00
2022-10-14T04:06:05.689Z,0.00
2022-10-14T04:07:05.672Z,0.00
2022-10-14T04:08:05.659Z,0.00
2022-10-14T04:09:05.660Z,0.00
2022-10-14T04:10:05.636Z,0.00
2022-10-14T04:11:05.630Z,0.00
2022-10-14T04:12:05.617Z,0.00
2022-10-14T04:13:05.613Z,0.00
2022-10-14T04:14:05.594Z,0.00
2022-10-14T04:15:05.586Z,0.00
2022-10-14T04:16:05.577Z,0.00
2022-10-14T04:17:05.560Z,0.00
2022-10-14T04:18:05.554Z,0.00
2022-10-14T04:19:05.548Z,0.00
2022-10-14T04:20:05.534Z,0.00
2022-10-14T04:21:05.520Z,0.00
2022-10-14T04:22:05.511Z,0.00
2022-10-14T04:23:05.505Z,0.00
2022-10-14T04:24:08.415Z,0.00
2022-10-14T04:25:05.484Z,0.00
2022-10-14T04:26:05.467Z,0.00
2022-10-14T04:27:05.452Z,0.00
2022-10-14T04:28:05.445Z,0.00
2022-10-14T04:29:05.449Z,0.00
2022-10-14T04:30:05.426Z,0.00
2022-10-14T04:31:05.416Z,0.00
2022-10-14T04:32:05.404Z,0.00
2022-10-14T04:33:05.402Z,0.00
2022-10-14T04:34:05.393Z,0.00
2022-10-14T04:35:05.385Z,0.00
2022-10-14T04:36:05.363Z,0.00
2022-10-14T04:37:05.349Z,0.00
2022-10-14T04:38:05.362Z,0.00
2022-10-14T04:39:05.327Z,0.00
2022-10-14T04:40:05.315Z,0.00
2022-10-14T04:41:05.307Z,0.00
2022-10-14T04:42:05.299Z,0.00
2022-10-14T04:43:05.282Z,0.00
2022-10-14T04:44:05.290Z,0.00
2022-10-14T04:45:05.260Z,0.00
2022-10-14T04:46:05.254Z,0.00
2022-10-14T04:47:05.244Z,0.00
2022-10-14T04:48:05.237Z,0.00
2022-10-14T04:49:05.232Z,0.00
2022-10-14T04:50:05.259Z,0.00
2022-10-14T04:51:05.199Z,0.00
2022-10-14T04:52:05.191Z,0.00
2022-10-14T04:53:05.176Z,0.00
2022-10-14T04:54:05.180Z,0.00
2022-10-14T04:55:05.153Z,0.00
2022-10-14T04:56:05.149Z,0.00
2022-10-14T04:57:05.135Z,0.00
2022-10-14T04:58:05.126Z,0.00
2022-10-14T04:59:05.133Z,0.00
2022-10-14T05:00:05.106Z,0.00
2022-10-14T05:01:05.105Z,0.00
2022-10-14T05:02:05.258Z,0.00
2022-10-14T05:03:05.073Z,0.00
2022-10-14T05:04:05.062Z,0.00
2022-10-14T05:05:05.048Z,0.00
2022-10-14T05:06:05.040Z,0.00
2022-10-14T05:07:05.063Z,0.00
2022-10-14T05:08:05.029Z,0.00
2022-10-14T05:09:05.006Z,0.00
2022-10-14T05:10:04.996Z,0.00
2022-10-14T05:11:04.997Z,0.00
2022-10-14T05:12:04.923Z,1.00
2022-10-14T05:13:04.921Z,1.00
2022-10-14T05:14:04.922Z,1.00
2022-10-14T05:15:04.890Z,1.00
2022-10-14T05:16:04.938Z,0.00
2022-10-14T05:17:04.905Z,2.00
2022-10-14T05:18:04.888Z,1.00
2022-10-14T05:19:04.907Z,0.00
2022-10-14T05:20:04.903Z,0.00
2022-10-14T05:21:04.887Z,0.00
2022-10-14T05:22:04.876Z,0.00
2022-10-14T05:23:04.811Z,4.00
2022-10-14T05:24:04.804Z,3.00
2022-10-14T05:25:04.782Z,1.00
2022-10-14T05:26:04.773Z,2.00
2022-10-14T05:27:04.768Z,1.00
2022-10-14T05:28:04.753Z,2.00
2022-10-14T05:29:04.751Z,4.00
2022-10-14T05:30:04.735Z,2.00
2022-10-14T05:31:04.723Z,3.00
2022-10-14T05:32:04.713Z,6.00
2022-10-14T05:33:04.722Z,3.00
2022-10-14T05:34:04.694Z,3.00
2022-10-14T05:35:04.687Z,5.00
2022-10-14T05:36:04.692Z,4.00
2022-10-14T05:37:04.672Z,4.00
2022-10-14T05:38:04.651Z,6.00
2022-10-14T05:39:04.635Z,5.00
2022-10-14T05:40:04.717Z,6.00
2022-10-14T05:41:04.614Z,9.00
2022-10-14T05:42:04.607Z,9.00
2022-10-14T05:43:04.603Z,16.00
2022-10-14T05:44:04.582Z,7.00
2022-10-14T05:45:04.569Z,10.00
2022-10-14T05:46:04.561Z,10.00
2022-10-14T05:47:04.550Z,11.00
2022-10-14T05:48:04.542Z,12.00
2022-10-14T05:49:04.535Z,15.00
2022-10-14T05:50:04.531Z,13.00
2022-10-14T05:51:04.506Z,13.00
2022-10-14T05:52:04.500Z,20.00
2022-10-14T05:53:04.509Z,19.00
2022-10-14T05:54:04.482Z,17.00
2022-10-14T05:55:04.466Z,17.00
2022-10-14T05:56:04.489Z,15.00
2022-10-14T05:57:04.445Z,14.00
2022-10-14T05:58:04.436Z,17.00
2022-10-14T05:59:04.425Z,17.00
2022-10-14T06:00:04.416Z,14.00
2022-10-14T06:01:04.400Z,14.00
2022-10-14T06:02:04.424Z,16.00
2022-10-14T06:03:04.407Z,19.00
2022-10-14T06:04:04.401Z,17.00
2022-10-14T06:05:04.388Z,24.00
2022-10-14T06:06:04.356Z,19.00
2022-10-14T06:07:04.340Z,20.00
2022-10-14T06:08:04.336Z,22.00
2022-10-14T06:09:08.973Z,25.00
2022-10-14T06:11:15.132Z,40.00
2022-10-14T06:12:16.096Z,32.00
2022-10-14T06:13:16.083Z,34.00
2022-10-14T06:14:16.079Z,37.00
2022-10-14T06:15:16.064Z,39.00
2022-10-14T06:16:16.077Z,51.00
2022-10-14T06:17:17.631Z,52.00
2022-10-14T06:18:16.032Z,45.00
2022-10-14T06:19:16.022Z,46.00
2022-10-14T06:20:16.044Z,51.00
2022-10-14T06:21:15.999Z,45.00
2022-10-14T06:22:15.991Z,43.00
2022-10-14T06:23:15.977Z,43.00
2022-10-14T06:24:15.987Z,42.00
2022-10-14T06:25:15.953Z,41.00
2022-10-14T06:26:15.968Z,42.00
2022-10-14T06:27:15.928Z,45.00
2022-10-14T06:28:15.977Z,54.00
2022-10-14T06:29:15.910Z,54.00
2022-10-14T06:30:15.902Z,59.00
2022-10-14T06:31:15.913Z,55.00
2022-10-14T06:32:15.881Z,47.00
2022-10-14T06:33:15.891Z,44.00
2022-10-14T06:34:15.858Z,42.00
2022-10-14T06:35:15.845Z,46.00
2022-10-14T06:36:15.861Z,40.00
2022-10-14T06:37:15.822Z,43.00
2022-10-14T06:38:15.818Z,46.00
2022-10-14T06:39:15.831Z,48.00
2022-10-14T06:40:15.793Z,50.00
2022-10-14T06:41:15.779Z,50.00
2022-10-14T06:42:15.768Z,49.00
2022-10-14T06:43:15.754Z,48.00
2022-10-14T06:44:15.748Z,51.00
2022-10-14T06:45:15.800Z,54.00
2022-10-14T06:46:15.728Z,54.00
2022-10-14T06:47:15.712Z,58.00
2022-10-14T06:48:15.706Z,72.00
2022-10-14T06:49:15.717Z,66.00
2022-10-14T06:50:15.692Z,63.00
2022-10-14T06:51:15.679Z,63.00
2022-10-14T06:52:15.659Z,65.00
2022-10-14T06:53:15.648Z,69.00
2022-10-14T06:54:15.670Z,74.00
2022-10-14T06:55:15.667Z,79.00
2022-10-14T06:56:15.626Z,85.00
2022-10-14T06:57:15.615Z,98.00
2022-10-14T06:58:15.607Z,107.00
2022-10-14T06:59:15.582Z,98.00
2022-10-14T07:00:15.595Z,91.00
2022-10-14T07:01:15.684Z,98.00
2022-10-14T07:02:15.553Z,101.00
2022-10-14T07:03:15.560Z,107.00
2022-10-14T07:04:15.530Z,112.00
2022-10-14T07:05:15.537Z,120.00
2022-10-14T07:06:15.513Z,129.00
2022-10-14T07:07:15.492Z,136.00
2022-10-14T07:08:15.891Z,142.00
2022-10-14T07:09:15.472Z,148.00
2022-10-14T07:10:15.481Z,159.00
2022-10-14T07:11:15.449Z,176.00
2022-10-14T07:12:15.447Z,194.00
2022-10-14T07:13:15.432Z,229.00
2022-10-14T07:14:15.419Z,249.00
2022-10-14T07:15:15.427Z,265.00
2022-10-14T07:16:15.398Z,301.00
2022-10-14T07:17:15.415Z,309.00
2022-10-14T07:18:15.376Z,272.00
2022-10-14T07:19:15.364Z,240.00
2022-10-14T07:20:15.387Z,227.00
2022-10-14T07:21:15.341Z,223.00
2022-10-14T07:22:15.337Z,205.00
2022-10-14T07:23:15.317Z,212.00
2022-10-14T07:24:15.311Z,260.00
2022-10-14T07:25:15.301Z,291.00
2022-10-14T07:26:15.305Z,305.00
2022-10-14T07:27:15.281Z,281.00
2022-10-14T07:28:15.344Z,249.00
2022-10-14T07:29:15.262Z,218.00
2022-10-14T07:30:17.483Z,196.00
2022-10-14T07:31:15.242Z,187.00
2022-10-14T07:32:15.483Z,168.00
2022-10-14T07:33:15.230Z,157.00
2022-10-14T07:34:15.220Z,148.00
2022-10-14T07:35:15.198Z,166.00
2022-10-14T07:36:17.294Z,191.00
2022-10-14T07:37:15.240Z,214.00
2022-10-14T07:38:15.158Z,211.00
2022-10-14T07:39:15.168Z,177.00
2022-10-14T07:40:15.137Z,159.00
2022-10-14T07:41:15.126Z,170.00
2022-10-14T07:42:15.407Z,190.00
2022-10-14T07:43:15.278Z,243.00
2022-10-14T07:44:15.095Z,257.00
2022-10-14T07:45:15.089Z,241.00
2022-10-14T07:46:15.076Z,223.00
2022-10-14T07:47:15.347Z,210.00
2022-10-14T07:48:17.072Z,209.00
2022-10-14T07:49:15.062Z,214.00
2022-10-14T07:50:15.031Z,214.00
2022-10-14T07:51:15.035Z,189.00
2022-10-14T07:52:15.006Z,151.00
2022-10-14T07:53:14.998Z,142.00
2022-10-14T07:54:15.013Z,149.00
2022-10-14T07:55:14.975Z,158.00
2022-10-14T07:56:14.962Z,184.00
2022-10-14T07:57:14.961Z,182.00
2022-10-14T07:58:14.941Z,168.00
2022-10-14T07:59:14.933Z,173.00
2022-10-14T08:00:14.930Z,183.00
2022-10-14T08:01:14.997Z,199.00
2022-10-14T08:02:14.953Z,225.00
2022-10-14T08:03:14.898Z,240.00
2022-10-14T08:04:14.875Z,235.00
2022-10-14T08:06:13.859Z,223.00
2022-10-14T08:07:14.848Z,212.00
2022-10-14T08:08:14.832Z,226.00
2022-10-14T08:09:14.892Z,253.00
2022-10-14T08:10:14.822Z,296.00
2022-10-14T08:11:14.812Z,353.00
2022-10-14T08:12:14.793Z,415.00
2022-10-14T08:13:14.792Z,463.00
2022-10-14T08:14:14.767Z,668.00
2022-10-14T08:15:14.762Z,722.00
2022-10-14T08:16:14.755Z,669.00
2022-10-14T08:17:14.740Z,574.00
2022-10-14T08:18:14.727Z,514.00
2022-10-14T08:19:15.048Z,524.00
2022-10-14T08:20:14.864Z,450.00
2022-10-14T08:21:14.742Z,359.00
2022-10-14T08:22:14.709Z,352.00
2022-10-14T08:23:17.490Z,361.00
2022-10-14T08:24:14.671Z,359.00
2022-10-14T08:25:14.654Z,309.00
2022-10-14T08:26:14.642Z,265.00
2022-10-14T08:27:14.632Z,253.00
2022-10-14T08:28:14.669Z,264.00
2022-10-14T08:29:14.629Z,276.00
2022-10-14T08:30:14.598Z,290.00
2022-10-14T08:31:14.634Z,308.00
2022-10-14T08:32:14.576Z,332.00
2022-10-14T08:33:14.575Z,366.00
2022-10-14T08:34:14.553Z,404.00
2022-10-14T08:35:14.558Z,465.00
2022-10-14T08:36:14.530Z,457.00
2022-10-14T08:37:14.526Z,467.00
2022-10-14T08:38:14.510Z,508.00
2022-10-14T08:39:14.505Z,563.00
2022-10-14T08:40:14.502Z,623.00
2022-10-14T08:41:14.496Z,678.00
2022-10-14T08:42:14.468Z,839.00
2022-10-14T08:43:14.581Z,906.00
2022-10-14T08:44:14.506Z,835.00
2022-10-14T08:45:14.457Z,917.00
2022-10-14T08:46:14.423Z,787.00
2022-10-14T08:47:14.419Z,1027.00
2022-10-14T08:48:14.406Z,941.00
2022-10-14T08:49:14.397Z,850.00
2022-10-14T08:50:14.379Z,816.00
2022-10-14T08:51:14.395Z,854.00
2022-10-14T08:52:14.361Z,776.00
2022-10-14T08:53:14.359Z,649.00
2022-10-14T08:54:14.338Z,646.00
2022-10-14T08:55:15.309Z,779.00
2022-10-14T08:56:14.333Z,852.00
2022-10-14T08:57:14.309Z,930.00
2022-10-14T08:58:14.414Z,857.00
2022-10-14T08:59:14.291Z,876.00
2022-10-14T09:00:14.270Z,893.00
2022-10-14T09:01:14.278Z,706.00
2022-10-14T09:02:14.261Z,840.00
2022-10-14T09:03:14.275Z,865.00
2022-10-14T09:04:14.283Z,650.00
2022-10-14T09:05:14.238Z,721.00
2022-10-14T09:06:14.219Z,1282.00
2022-10-14T09:07:14.195Z,872.00
2022-10-14T09:08:14.199Z,902.00
2022-10-14T09:09:14.177Z,873.00
2022-10-14T09:10:14.175Z,803.00
2022-10-14T09:11:14.165Z,808.00
2022-10-14T09:12:13.137Z,763.00
2022-10-14T09:13:14.130Z,814.00
2022-10-14T09:14:14.116Z,1070.00
2022-10-14T09:15:14.111Z,948.00
2022-10-14T09:16:14.096Z,860.00
2022-10-14T09:17:14.100Z,982.00
2022-10-14T09:18:14.071Z,1067.00
2022-10-14T09:19:14.068Z,1097.00
2022-10-14T09:20:14.077Z,1064.00
2022-10-14T09:21:22.719Z,1068.00
2022-10-14T09:22:14.045Z,932.00
2022-10-14T09:23:14.017Z,1563.00
2022-10-14T09:24:14.005Z,1484.00
2022-10-14T09:25:14.017Z,1158.00
2022-10-14T09:26:13.989Z,929.00
2022-10-14T09:27:13.992Z,829.00
2022-10-14T09:28:14.251Z,748.00
2022-10-14T09:29:13.957Z,799.00
2022-10-14T09:30:13.942Z,871.00
2022-10-14T09:31:13.939Z,1064.00
2022-10-14T09:32:13.940Z,1242.00
2022-10-14T09:33:13.913Z,1454.00
2022-10-14T09:34:13.904Z,1332.00
2022-10-14T09:35:13.888Z,1079.00
2022-10-14T09:36:13.872Z,936.00
2022-10-14T09:37:13.877Z,871.00
2022-10-14T09:38:13.852Z,845.00
2022-10-14T09:39:13.845Z,787.00
2022-10-14T09:40:13.832Z,725.00
2022-10-14T09:41:13.823Z,702.00
2022-10-14T09:42:13.810Z,778.00
2022-10-14T09:43:13.824Z,895.00
2022-10-14T09:44:13.787Z,1026.00
2022-10-14T09:45:13.781Z,1240.00
2022-10-14T09:46:13.767Z,1237.00
2022-10-14T09:47:13.756Z,1673.00
2022-10-14T09:48:13.763Z,1470.00
2022-10-14T09:49:13.744Z,1628.00
2022-10-14T09:50:13.728Z,1882.00
2022-10-14T09:51:13.719Z,1773.00
2022-10-14T09:52:13.699Z,2204.00
2022-10-14T09:53:13.731Z,991.00
2022-10-14T09:54:13.690Z,1076.00
2022-10-14T09:55:13.673Z,2041.00
2022-10-14T09:56:13.660Z,1371.00
2022-10-14T09:57:13.653Z,1062.00
2022-10-14T09:58:13.636Z,1540.00
2022-10-14T09:59:13.652Z,1148.00
2022-10-14T10:00:13.613Z,1081.00
2022-10-14T10:01:13.607Z,819.00
2022-10-14T10:02:13.592Z,791.00
2022-10-14T10:03:17.076Z,1028.00
2022-10-14T10:04:13.605Z,1015.00
2022-10-14T10:05:13.563Z,1242.00
2022-10-14T10:06:13.649Z,1043.00
2022-10-14T10:07:13.539Z,799.00
2022-10-14T10:08:13.533Z,864.00
2022-10-14T10:09:13.518Z,1177.00
2022-10-14T10:10:13.520Z,927.00
2022-10-14T10:11:13.499Z,1011.00
2022-10-14T10:12:13.484Z,1314.00
2022-10-14T10:13:13.474Z,1531.00
2022-10-14T10:14:13.472Z,1131.00
2022-10-14T10:15:13.478Z,898.00
2022-10-14T10:16:13.462Z,1077.00
2022-10-14T10:17:13.456Z,1385.00
2022-10-14T10:18:13.415Z,1024.00
2022-10-14T10:19:13.406Z,1233.00
2022-10-14T10:20:13.400Z,3674.00
2022-10-14T10:21:13.436Z,1733.00
2022-10-14T10:22:13.398Z,1215.00
2022-10-14T10:23:13.389Z,1575.00
2022-10-14T10:24:13.351Z,1428.00
2022-10-14T10:25:13.343Z,1916.00
2022-10-14T10:26:13.328Z,2798.00
2022-10-14T10:27:13.340Z,2340.00
2022-10-14T10:28:13.311Z,6832.00
2022-10-14T10:29:13.304Z,1776.00
2022-10-14T10:30:13.285Z,2121.00
2022-10-14T10:31:13.277Z,3629.00
2022-10-14T10:32:13.304Z,2904.00
2022-10-14T10:33:13.276Z,4961.00
2022-10-14T10:34:13.276Z,4684.00
2022-10-14T10:35:13.247Z,1913.00
2022-10-14T10:36:13.256Z,3860.00
2022-10-14T10:37:13.223Z,2796.00
2022-10-14T10:38:13.198Z,2059.00
2022-10-14T10:39:13.195Z,3803.00
2022-10-14T10:40:13.201Z,1929.00
2022-10-14T10:41:13.168Z,3442.00
2022-10-14T10:42:13.153Z,1797.00
2022-10-14T10:43:13.149Z,2055.00
2022-10-14T10:44:13.178Z,3125.00
2022-10-14T10:45:13.179Z,6577.00
2022-10-14T10:46:13.132Z,1226.00
2022-10-14T10:47:13.162Z,2253.00
2022-10-14T10:48:13.115Z,2104.00
2022-10-14T10:49:13.133Z,1213.00
2022-10-14T10:50:13.122Z,1564.00
2022-10-14T10:51:13.101Z,2296.00
2022-10-14T10:52:16.146Z,2722.00
2022-10-14T10:53:13.089Z,1395.00
2022-10-14T10:54:13.052Z,1676.00
2022-10-14T10:55:13.067Z,5366.00
2022-10-14T10:56:13.053Z,1382.00
2022-10-14T10:57:13.075Z,2323.00
2022-10-14T10:58:13.035Z,4609.00
2022-10-14T10:59:13.068Z,1441.00
2022-10-14T11:00:13.019Z,1236.00
2022-10-14T11:01:13.023Z,1081.00
2022-10-14T11:02:12.968Z,1419.00
2022-10-14T11:03:13.014Z,1326.00
2022-10-14T11:04:12.943Z,1777.00
2022-10-14T11:05:12.963Z,1039.00
2022-10-14T11:06:12.934Z,1107.00
2022-10-14T11:07:12.967Z,1510.00
2022-10-14T11:08:12.905Z,5154.00
2022-10-14T11:09:12.945Z,1886.00
2022-10-14T11:10:12.881Z,4785.00
2022-10-14T11:11:12.901Z,3104.00
2022-10-14T11:12:12.870Z,1454.00
2022-10-14T11:13:12.864Z,2448.00
2022-10-14T11:14:12.838Z,2697.00
2022-10-14T11:15:12.921Z,4669.00
2022-10-14T11:16:12.816Z,2368.00
2022-10-14T11:17:12.837Z,4080.00
2022-10-14T11:18:12.826Z,2202.00
2022-10-14T11:19:14.610Z,4576.00
2022-10-14T11:20:12.804Z,3729.00
2022-10-14T11:21:12.791Z,1823.00
2022-10-14T11:22:12.751Z,3856.00
2022-10-14T11:23:12.791Z,3443.00
2022-10-14T11:24:12.755Z,5850.00
2022-10-14T11:25:12.756Z,911.00
2022-10-14T11:26:12.733Z,1370.00
2022-10-14T11:27:12.755Z,1012.00
2022-10-14T11:28:12.681Z,3074.00
2022-10-14T11:29:12.667Z,1452.00
2022-10-14T11:30:12.655Z,913.00
2022-10-14T11:31:12.649Z,1142.00
2022-10-14T11:32:12.678Z,1005.00
2022-10-14T11:33:12.659Z,1087.00
2022-10-14T11:34:12.590Z,1385.00
2022-10-14T11:35:12.583Z,1159.00
2022-10-14T11:36:12.577Z,1902.00
2022-10-14T11:37:12.561Z,1428.00
2022-10-14T11:38:12.568Z,1007.00
2022-10-14T11:39:12.538Z,1138.00
2022-10-14T11:40:12.522Z,2012.00
2022-10-14T11:41:12.517Z,1130.00
2022-10-14T11:42:12.522Z,1275.00
2022-10-14T11:43:12.493Z,1943.00
2022-10-14T11:44:12.503Z,1510.00
2022-10-14T11:45:14.203Z,1422.00
2022-10-14T11:46:12.478Z,1156.00
2022-10-14T11:47:12.486Z,1305.00
2022-10-14T11:48:12.443Z,1105.00
2022-10-14T11:49:12.431Z,1343.00
2022-10-14T11:50:12.466Z,1471.00
2022-10-14T11:51:12.427Z,1628.00
2022-10-14T11:52:12.400Z,1014.00
2022-10-14T11:53:12.386Z,1325.00
2022-10-14T11:54:12.401Z,1358.00
2022-10-14T11:55:14.602Z,1273.00
2022-10-14T11:56:12.376Z,1121.00
2022-10-14T11:57:12.341Z,1276.00
2022-10-14T11:58:12.364Z,1012.00
2022-10-14T11:59:12.330Z,1118.00
2022-10-14T12:00:12.349Z,1652.00
2022-10-14T12:01:12.300Z,939.00
2022-10-14T12:02:12.375Z,907.00
2022-10-14T12:03:12.342Z,1636.00
2022-10-14T12:04:12.289Z,871.00
2022-10-14T12:05:12.260Z,1476.00
2022-10-14T12:06:12.274Z,1078.00
2022-10-14T12:07:12.237Z,1065.00
2022-10-14T12:08:12.235Z,1061.00
2022-10-14T12:09:12.219Z,790.00
2022-10-14T12:10:12.231Z,715.00
2022-10-14T12:11:12.193Z,824.00
2022-10-14T12:12:12.183Z,913.00
2022-10-14T12:13:12.268Z,889.00
2022-10-14T12:14:12.166Z,1654.00
2022-10-14T12:15:12.177Z,1452.00
2022-10-14T12:16:12.151Z,930.00
2022-10-14T12:17:14.729Z,804.00
2022-10-14T12:18:12.136Z,727.00
2022-10-14T12:19:12.107Z,641.00
2022-10-14T12:20:12.127Z,687.00
2022-10-14T12:21:12.088Z,853.00
2022-10-14T12:22:12.079Z,845.00
2022-10-14T12:23:12.083Z,921.00
2022-10-14T12:24:12.062Z,835.00
2022-10-14T12:25:12.076Z,917.00
2022-10-14T12:26:12.042Z,1033.00
2022-10-14T12:27:12.022Z,915.00
2022-10-14T12:28:12.013Z,827.00
2022-10-14T12:29:12.084Z,790.00
2022-10-14T12:30:11.994Z,732.00
2022-10-14T12:31:12.015Z,715.00
2022-10-14T12:32:11.976Z,709.00
2022-10-14T12:33:11.958Z,659.00
2022-10-14T12:34:11.971Z,549.00
2022-10-14T12:35:11.934Z,535.00
2022-10-14T12:36:11.933Z,541.00
2022-10-14T12:37:11.935Z,519.00
2022-10-14T12:38:11.910Z,512.00
2022-10-14T12:39:11.891Z,509.00
2022-10-14T12:40:11.964Z,492.00
2022-10-14T12:41:11.873Z,446.00
2022-10-14T12:42:11.890Z,385.00
2022-10-14T12:43:11.847Z,428.00
2022-10-14T12:44:11.841Z,462.00
2022-10-14T12:45:11.828Z,480.00
2022-10-14T12:46:11.819Z,502.00
2022-10-14T12:47:11.865Z,509.00
2022-10-14T12:48:11.802Z,511.00
2022-10-14T12:49:12.198Z,429.00